sensor_id;sensor_type;location;lat;lon;timestamp;P1;durP1;ratioP1;P2;durP2;ratioP2
25213;SDS011;13160;51.834;4.706;2022-07-29T00:01:40;6.82;;;1.83;;
25213;SDS011;13160;51.834;4.706;2022-07-29T00:04:09;4.18;;;1.92;;
25213;SDS011;13160;51.834;4.706;2022-07-29T00:06:38;5.30;;;1.90;;
25213;SDS011;13160;51.834;4.706;2022-07-29T00:09:07;5.07;;;1.92;;
25213;SDS011;13160;51.834;4.706;2022-07-29T00:11:35;5.45;;;2.35;;
25213;SDS011;13160;51.834;4.706;2022-07-29T00:14:04;4.90;;;2.22;;
25213;SDS011;13160;51.834;4.706;2022-07-29T00:16:34;6.93;;;2.42;;
25213;SDS011;13160;51.834;4.706;2022-07-29T00:19:03;5.43;;;2.30;;
25213;SDS011;13160;51.834;4.706;2022-07-29T00:21:33;6.47;;;2.35;;
25213;SDS011;13160;51.834;4.706;2022-07-29T00:24:01;6.10;;;2.20;;
25213;SDS011;13160;51.834;4.706;2022-07-29T00:26:30;4.55;;;2.13;;
25213;SDS011;13160;51.834;4.706;2022-07-29T00:28:58;5.70;;;2.58;;
25213;SDS011;13160;51.834;4.706;2022-07-29T00:31:49;3.92;;;2.08;;
25213;SDS011;13160;51.834;4.706;2022-07-29T00:34:18;5.53;;;2.40;;
25213;SDS011;13160;51.834;4.706;2022-07-29T00:37:04;3.83;;;2.25;;
25213;SDS011;13160;51.834;4.706;2022-07-29T00:39:33;5.70;;;2.60;;
25213;SDS011;13160;51.834;4.706;2022-07-29T00:42:01;5.90;;;2.05;;
25213;SDS011;13160;51.834;4.706;2022-07-29T00:44:32;4.55;;;2.33;;
25213;SDS011;13160;51.834;4.706;2022-07-29T00:47:06;5.28;;;2.28;;
25213;SDS011;13160;51.834;4.706;2022-07-29T00:49:36;5.20;;;2.30;;
25213;SDS011;13160;51.834;4.706;2022-07-29T00:52:08;5.90;;;2.08;;
25213;SDS011;13160;51.834;4.706;2022-07-29T00:54:42;5.90;;;2.20;;
25213;SDS011;13160;51.834;4.706;2022-07-29T00:57:10;5.47;;;2.00;;
25213;SDS011;13160;51.834;4.706;2022-07-29T00:59:39;7.53;;;2.55;;
25213;SDS011;13160;51.834;4.706;2022-07-29T01:02:10;4.25;;;2.00;;
25213;SDS011;13160;51.834;4.706;2022-07-29T01:04:38;5.03;;;2.28;;
25213;SDS011;13160;51.834;4.706;2022-07-29T01:07:07;7.53;;;2.40;;
25213;SDS011;13160;51.834;4.706;2022-07-29T01:09:36;5.07;;;2.50;;
25213;SDS011;13160;51.834;4.706;2022-07-29T01:12:12;4.72;;;2.20;;
25213;SDS011;13160;51.834;4.706;2022-07-29T01:14:45;6.85;;;2.70;;
25213;SDS011;13160;51.834;4.706;2022-07-29T01:17:19;4.15;;;2.58;;
25213;SDS011;13160;51.834;4.706;2022-07-29T01:19:53;7.15;;;2.75;;
25213;SDS011;13160;51.834;4.706;2022-07-29T01:22:37;4.68;;;2.30;;
25213;SDS011;13160;51.834;4.706;2022-07-29T01:25:31;4.72;;;2.33;;
25213;SDS011;13160;51.834;4.706;2022-07-29T01:31:35;6.18;;;2.65;;
25213;SDS011;13160;51.834;4.706;2022-07-29T01:34:27;7.05;;;2.80;;
25213;SDS011;13160;51.834;4.706;2022-07-29T01:37:05;5.63;;;2.30;;
25213;SDS011;13160;51.834;4.706;2022-07-29T01:39:41;4.80;;;2.60;;
25213;SDS011;13160;51.834;4.706;2022-07-29T01:42:12;5.13;;;2.50;;
25213;SDS011;13160;51.834;4.706;2022-07-29T01:44:50;4.85;;;2.55;;
25213;SDS011;13160;51.834;4.706;2022-07-29T01:47:26;3.58;;;2.40;;
25213;SDS011;13160;51.834;4.706;2022-07-29T01:50:06;5.95;;;2.92;;
25213;SDS011;13160;51.834;4.706;2022-07-29T01:52:39;7.35;;;2.63;;
25213;SDS011;13160;51.834;4.706;2022-07-29T01:55:13;3.85;;;2.35;;
25213;SDS011;13160;51.834;4.706;2022-07-29T01:57:45;4.40;;;2.40;;
25213;SDS011;13160;51.834;4.706;2022-07-29T02:00:17;5.03;;;2.50;;
25213;SDS011;13160;51.834;4.706;2022-07-29T02:02:47;4.85;;;2.53;;
25213;SDS011;13160;51.834;4.706;2022-07-29T02:05:17;9.18;;;2.90;;
25213;SDS011;13160;51.834;4.706;2022-07-29T02:07:48;4.65;;;2.55;;
25213;SDS011;13160;51.834;4.706;2022-07-29T02:10:19;7.07;;;2.78;;
25213;SDS011;13160;51.834;4.706;2022-07-29T02:12:51;5.05;;;2.58;;
25213;SDS011;13160;51.834;4.706;2022-07-29T02:15:24;7.70;;;2.63;;
25213;SDS011;13160;51.834;4.706;2022-07-29T02:17:56;5.82;;;2.90;;
25213;SDS011;13160;51.834;4.706;2022-07-29T02:20:29;5.53;;;2.55;;
25213;SDS011;13160;51.834;4.706;2022-07-29T02:22:58;4.00;;;2.50;;
25213;SDS011;13160;51.834;4.706;2022-07-29T02:25:28;6.03;;;3.00;;
25213;SDS011;13160;51.834;4.706;2022-07-29T02:28:03;5.40;;;2.75;;
25213;SDS011;13160;51.834;4.706;2022-07-29T02:30:34;6.55;;;2.50;;
25213;SDS011;13160;51.834;4.706;2022-07-29T02:33:08;4.93;;;2.40;;
25213;SDS011;13160;51.834;4.706;2022-07-29T02:35:40;7.00;;;2.83;;
25213;SDS011;13160;51.834;4.706;2022-07-29T02:38:12;9.13;;;2.92;;
25213;SDS011;13160;51.834;4.706;2022-07-29T02:41:01;6.18;;;2.67;;
25213;SDS011;13160;51.834;4.706;2022-07-29T02:43:35;4.68;;;2.28;;
25213;SDS011;13160;51.834;4.706;2022-07-29T02:46:06;5.40;;;2.65;;
25213;SDS011;13160;51.834;4.706;2022-07-29T02:48:56;4.35;;;2.63;;
25213;SDS011;13160;51.834;4.706;2022-07-29T02:51:32;5.57;;;2.40;;
25213;SDS011;13160;51.834;4.706;2022-07-29T02:54:10;6.68;;;2.47;;
25213;SDS011;13160;51.834;4.706;2022-07-29T02:56:48;6.10;;;2.85;;
25213;SDS011;13160;51.834;4.706;2022-07-29T02:59:20;7.05;;;2.85;;
25213;SDS011;13160;51.834;4.706;2022-07-29T03:01:55;5.50;;;2.65;;
25213;SDS011;13160;51.834;4.706;2022-07-29T03:04:26;5.25;;;2.60;;
25213;SDS011;13160;51.834;4.706;2022-07-29T03:06:58;6.20;;;2.83;;
25213;SDS011;13160;51.834;4.706;2022-07-29T03:09:27;6.35;;;2.90;;
25213;SDS011;13160;51.834;4.706;2022-07-29T03:11:57;5.88;;;2.97;;
25213;SDS011;13160;51.834;4.706;2022-07-29T03:14:25;4.45;;;2.40;;
25213;SDS011;13160;51.834;4.706;2022-07-29T03:16:55;6.22;;;2.90;;
25213;SDS011;13160;51.834;4.706;2022-07-29T03:19:25;6.25;;;2.83;;
25213;SDS011;13160;51.834;4.706;2022-07-29T03:21:55;6.07;;;3.05;;
25213;SDS011;13160;51.834;4.706;2022-07-29T03:24:25;5.63;;;2.47;;
25213;SDS011;13160;51.834;4.706;2022-07-29T03:26:59;6.43;;;2.72;;
25213;SDS011;13160;51.834;4.706;2022-07-29T03:29:29;4.00;;;2.78;;
25213;SDS011;13160;51.834;4.706;2022-07-29T03:32:01;6.03;;;2.80;;
25213;SDS011;13160;51.834;4.706;2022-07-29T03:34:33;8.23;;;3.00;;
25213;SDS011;13160;51.834;4.706;2022-07-29T03:37:03;4.75;;;2.78;;
25213;SDS011;13160;51.834;4.706;2022-07-29T03:39:33;6.20;;;3.30;;
25213;SDS011;13160;51.834;4.706;2022-07-29T03:42:07;6.78;;;3.17;;
25213;SDS011;13160;51.834;4.706;2022-07-29T03:44:40;4.72;;;2.90;;
25213;SDS011;13160;51.834;4.706;2022-07-29T03:47:12;6.30;;;3.30;;
25213;SDS011;13160;51.834;4.706;2022-07-29T03:49:42;5.78;;;2.97;;
25213;SDS011;13160;51.834;4.706;2022-07-29T03:52:14;6.07;;;3.10;;
25213;SDS011;13160;51.834;4.706;2022-07-29T03:54:43;6.28;;;3.22;;
25213;SDS011;13160;51.834;4.706;2022-07-29T03:57:11;6.32;;;2.97;;
25213;SDS011;13160;51.834;4.706;2022-07-29T03:59:40;5.55;;;2.90;;
25213;SDS011;13160;51.834;4.706;2022-07-29T04:02:10;5.25;;;2.70;;
25213;SDS011;13160;51.834;4.706;2022-07-29T04:04:47;6.75;;;3.20;;
25213;SDS011;13160;51.834;4.706;2022-07-29T04:07:15;7.93;;;3.53;;
25213;SDS011;13160;51.834;4.706;2022-07-29T04:09:43;6.85;;;3.20;;
25213;SDS011;13160;51.834;4.706;2022-07-29T04:12:12;5.82;;;3.33;;
25213;SDS011;13160;51.834;4.706;2022-07-29T04:14:41;5.05;;;3.17;;
25213;SDS011;13160;51.834;4.706;2022-07-29T04:17:09;7.40;;;3.13;;
25213;SDS011;13160;51.834;4.706;2022-07-29T04:19:39;5.90;;;3.30;;
25213;SDS011;13160;51.834;4.706;2022-07-29T04:22:07;6.18;;;3.65;;
25213;SDS011;13160;51.834;4.706;2022-07-29T04:24:35;6.90;;;3.30;;
25213;SDS011;13160;51.834;4.706;2022-07-29T04:27:03;7.47;;;3.63;;
25213;SDS011;13160;51.834;4.706;2022-07-29T04:29:31;6.95;;;3.50;;
25213;SDS011;13160;51.834;4.706;2022-07-29T04:31:59;5.82;;;3.30;;
25213;SDS011;13160;51.834;4.706;2022-07-29T04:34:28;5.57;;;3.58;;
25213;SDS011;13160;51.834;4.706;2022-07-29T04:36:59;5.22;;;3.10;;
25213;SDS011;13160;51.834;4.706;2022-07-29T04:39:27;6.82;;;3.30;;
25213;SDS011;13160;51.834;4.706;2022-07-29T04:41:55;5.20;;;3.25;;
25213;SDS011;13160;51.834;4.706;2022-07-29T04:44:24;5.43;;;3.38;;
25213;SDS011;13160;51.834;4.706;2022-07-29T04:46:54;7.40;;;3.80;;
25213;SDS011;13160;51.834;4.706;2022-07-29T04:49:24;8.02;;;3.95;;
25213;SDS011;13160;51.834;4.706;2022-07-29T04:51:53;7.55;;;4.10;;
25213;SDS011;13160;51.834;4.706;2022-07-29T04:54:23;8.70;;;3.72;;
25213;SDS011;13160;51.834;4.706;2022-07-29T04:56:51;7.68;;;3.80;;
25213;SDS011;13160;51.834;4.706;2022-07-29T04:59:19;7.00;;;3.72;;
25213;SDS011;13160;51.834;4.706;2022-07-29T05:01:48;7.70;;;3.55;;
25213;SDS011;13160;51.834;4.706;2022-07-29T05:04:16;5.65;;;3.85;;
25213;SDS011;13160;51.834;4.706;2022-07-29T05:06:45;5.78;;;4.00;;
25213;SDS011;13160;51.834;4.706;2022-07-29T05:09:13;7.72;;;3.90;;
25213;SDS011;13160;51.834;4.706;2022-07-29T05:11:43;6.00;;;3.72;;
25213;SDS011;13160;51.834;4.706;2022-07-29T05:14:12;8.65;;;4.55;;
25213;SDS011;13160;51.834;4.706;2022-07-29T05:16:41;6.35;;;3.53;;
25213;SDS011;13160;51.834;4.706;2022-07-29T05:19:09;5.70;;;3.65;;
25213;SDS011;13160;51.834;4.706;2022-07-29T05:21:40;6.07;;;3.58;;
25213;SDS011;13160;51.834;4.706;2022-07-29T05:24:08;8.18;;;3.95;;
25213;SDS011;13160;51.834;4.706;2022-07-29T05:26:38;7.25;;;3.88;;
25213;SDS011;13160;51.834;4.706;2022-07-29T05:29:08;5.60;;;3.45;;
25213;SDS011;13160;51.834;4.706;2022-07-29T05:31:57;7.00;;;3.90;;
25213;SDS011;13160;51.834;4.706;2022-07-29T05:34:25;7.88;;;3.42;;
25213;SDS011;13160;51.834;4.706;2022-07-29T05:36:54;6.97;;;4.25;;
25213;SDS011;13160;51.834;4.706;2022-07-29T05:39:22;5.47;;;3.40;;
25213;SDS011;13160;51.834;4.706;2022-07-29T05:42:11;6.25;;;3.60;;
25213;SDS011;13160;51.834;4.706;2022-07-29T05:44:40;7.65;;;3.92;;
25213;SDS011;13160;51.834;4.706;2022-07-29T05:47:09;6.88;;;3.70;;
25213;SDS011;13160;51.834;4.706;2022-07-29T05:49:37;5.10;;;3.67;;
25213;SDS011;13160;51.834;4.706;2022-07-29T05:52:05;5.78;;;3.58;;
25213;SDS011;13160;51.834;4.706;2022-07-29T05:54:34;7.43;;;3.92;;
25213;SDS011;13160;51.834;4.706;2022-07-29T05:57:02;6.25;;;3.70;;
25213;SDS011;13160;51.834;4.706;2022-07-29T05:59:31;6.40;;;3.72;;
25213;SDS011;13160;51.834;4.706;2022-07-29T06:02:04;6.32;;;4.18;;
25213;SDS011;13160;51.834;4.706;2022-07-29T06:04:33;7.72;;;4.25;;
25213;SDS011;13160;51.834;4.706;2022-07-29T06:07:01;7.40;;;4.43;;
25213;SDS011;13160;51.834;4.706;2022-07-29T06:09:29;7.80;;;3.97;;
25213;SDS011;13160;51.834;4.706;2022-07-29T06:12:01;6.00;;;3.90;;
25213;SDS011;13160;51.834;4.706;2022-07-29T06:14:30;5.22;;;3.95;;
25213;SDS011;13160;51.834;4.706;2022-07-29T06:16:59;7.65;;;4.40;;
25213;SDS011;13160;51.834;4.706;2022-07-29T06:19:28;8.80;;;4.30;;
25213;SDS011;13160;51.834;4.706;2022-07-29T06:21:57;8.55;;;4.10;;
25213;SDS011;13160;51.834;4.706;2022-07-29T06:24:25;6.72;;;3.75;;
25213;SDS011;13160;51.834;4.706;2022-07-29T06:26:53;7.28;;;4.25;;
25213;SDS011;13160;51.834;4.706;2022-07-29T06:29:22;7.95;;;3.85;;
25213;SDS011;13160;51.834;4.706;2022-07-29T06:31:50;7.07;;;3.95;;
25213;SDS011;13160;51.834;4.706;2022-07-29T06:34:18;5.47;;;3.30;;
25213;SDS011;13160;51.834;4.706;2022-07-29T06:36:49;6.55;;;3.58;;
25213;SDS011;13160;51.834;4.706;2022-07-29T06:39:19;7.10;;;3.42;;
25213;SDS011;13160;51.834;4.706;2022-07-29T06:41:48;6.78;;;3.60;;
25213;SDS011;13160;51.834;4.706;2022-07-29T06:44:17;6.28;;;3.25;;
25213;SDS011;13160;51.834;4.706;2022-07-29T06:46:46;5.80;;;3.45;;
25213;SDS011;13160;51.834;4.706;2022-07-29T06:49:15;7.45;;;3.42;;
25213;SDS011;13160;51.834;4.706;2022-07-29T06:51:44;4.68;;;3.08;;
25213;SDS011;13160;51.834;4.706;2022-07-29T06:54:14;6.20;;;3.00;;
25213;SDS011;13160;51.834;4.706;2022-07-29T06:56:43;5.25;;;3.15;;
25213;SDS011;13160;51.834;4.706;2022-07-29T06:59:12;6.60;;;3.35;;
25213;SDS011;13160;51.834;4.706;2022-07-29T07:01:41;6.53;;;3.13;;
25213;SDS011;13160;51.834;4.706;2022-07-29T07:04:10;5.53;;;3.22;;
25213;SDS011;13160;51.834;4.706;2022-07-29T07:06:40;6.07;;;2.97;;
25213;SDS011;13160;51.834;4.706;2022-07-29T07:09:08;4.72;;;2.92;;
25213;SDS011;13160;51.834;4.706;2022-07-29T07:11:38;5.93;;;2.85;;
25213;SDS011;13160;51.834;4.706;2022-07-29T07:14:06;9.35;;;3.33;;
25213;SDS011;13160;51.834;4.706;2022-07-29T07:16:34;4.47;;;2.90;;
25213;SDS011;13160;51.834;4.706;2022-07-29T07:19:03;5.35;;;2.97;;
25213;SDS011;13160;51.834;4.706;2022-07-29T07:21:32;10.32;;;2.75;;
25213;SDS011;13160;51.834;4.706;2022-07-29T07:24:01;6.95;;;2.67;;
25213;SDS011;13160;51.834;4.706;2022-07-29T07:26:29;5.43;;;3.20;;
25213;SDS011;13160;51.834;4.706;2022-07-29T07:28:59;5.30;;;2.90;;
25213;SDS011;13160;51.834;4.706;2022-07-29T07:31:28;5.07;;;2.78;;
25213;SDS011;13160;51.834;4.706;2022-07-29T07:33:56;5.72;;;2.70;;
25213;SDS011;13160;51.834;4.706;2022-07-29T07:36:25;6.38;;;2.90;;
25213;SDS011;13160;51.834;4.706;2022-07-29T07:38:53;8.30;;;3.13;;
25213;SDS011;13160;51.834;4.706;2022-07-29T07:41:21;6.50;;;2.95;;
25213;SDS011;13160;51.834;4.706;2022-07-29T07:43:50;5.07;;;2.63;;
25213;SDS011;13160;51.834;4.706;2022-07-29T07:46:20;5.25;;;2.75;;
25213;SDS011;13160;51.834;4.706;2022-07-29T07:48:49;7.75;;;3.10;;
25213;SDS011;13160;51.834;4.706;2022-07-29T07:51:18;8.35;;;2.67;;
25213;SDS011;13160;51.834;4.706;2022-07-29T07:53:47;6.97;;;2.80;;
25213;SDS011;13160;51.834;4.706;2022-07-29T07:56:16;7.75;;;3.15;;
25213;SDS011;13160;51.834;4.706;2022-07-29T07:58:44;6.38;;;3.33;;
25213;SDS011;13160;51.834;4.706;2022-07-29T08:01:13;6.78;;;2.95;;
25213;SDS011;13160;51.834;4.706;2022-07-29T08:03:46;6.55;;;3.30;;
25213;SDS011;13160;51.834;4.706;2022-07-29T08:06:15;6.53;;;3.00;;
25213;SDS011;13160;51.834;4.706;2022-07-29T08:08:43;5.05;;;2.53;;
25213;SDS011;13160;51.834;4.706;2022-07-29T08:11:12;5.43;;;3.10;;
25213;SDS011;13160;51.834;4.706;2022-07-29T08:13:40;6.55;;;3.00;;
25213;SDS011;13160;51.834;4.706;2022-07-29T08:16:09;5.95;;;2.78;;
25213;SDS011;13160;51.834;4.706;2022-07-29T08:18:42;6.70;;;2.90;;
25213;SDS011;13160;51.834;4.706;2022-07-29T08:21:14;6.25;;;2.70;;
25213;SDS011;13160;51.834;4.706;2022-07-29T08:23:44;8.43;;;3.72;;
25213;SDS011;13160;51.834;4.706;2022-07-29T08:26:27;8.85;;;3.00;;
25213;SDS011;13160;51.834;4.706;2022-07-29T08:28:55;5.88;;;2.85;;
25213;SDS011;13160;51.834;4.706;2022-07-29T08:31:23;6.07;;;3.35;;
25213;SDS011;13160;51.834;4.706;2022-07-29T08:33:51;8.18;;;3.40;;
25213;SDS011;13160;51.834;4.706;2022-07-29T08:36:24;6.38;;;2.88;;
25213;SDS011;13160;51.834;4.706;2022-07-29T08:38:52;5.45;;;2.83;;
25213;SDS011;13160;51.834;4.706;2022-07-29T08:41:21;6.22;;;3.17;;
25213;SDS011;13160;51.834;4.706;2022-07-29T08:43:50;5.40;;;2.85;;
25213;SDS011;13160;51.834;4.706;2022-07-29T08:46:19;13.48;;;3.15;;
25213;SDS011;13160;51.834;4.706;2022-07-29T08:48:49;8.25;;;2.97;;
25213;SDS011;13160;51.834;4.706;2022-07-29T08:51:18;6.15;;;2.92;;
25213;SDS011;13160;51.834;4.706;2022-07-29T08:53:49;7.22;;;3.03;;
25213;SDS011;13160;51.834;4.706;2022-07-29T08:56:18;5.88;;;3.00;;
25213;SDS011;13160;51.834;4.706;2022-07-29T08:58:48;8.52;;;3.50;;
25213;SDS011;13160;51.834;4.706;2022-07-29T09:01:21;5.55;;;3.10;;
25213;SDS011;13160;51.834;4.706;2022-07-29T09:04:09;7.38;;;3.00;;
25213;SDS011;13160;51.834;4.706;2022-07-29T09:06:41;7.78;;;3.50;;
25213;SDS011;13160;51.834;4.706;2022-07-29T09:09:13;7.28;;;3.10;;
25213;SDS011;13160;51.834;4.706;2022-07-29T09:11:42;5.95;;;2.92;;
25213;SDS011;13160;51.834;4.706;2022-07-29T09:14:11;8.98;;;3.10;;
25213;SDS011;13160;51.834;4.706;2022-07-29T09:16:45;6.47;;;3.47;;
25213;SDS011;13160;51.834;4.706;2022-07-29T09:19:20;6.65;;;2.97;;
25213;SDS011;13160;51.834;4.706;2022-07-29T09:21:55;7.57;;;2.85;;
25213;SDS011;13160;51.834;4.706;2022-07-29T09:24:40;10.07;;;3.47;;
25213;SDS011;13160;51.834;4.706;2022-07-29T09:27:12;6.18;;;3.47;;
25213;SDS011;13160;51.834;4.706;2022-07-29T09:29:55;6.45;;;3.17;;
25213;SDS011;13160;51.834;4.706;2022-07-29T09:32:25;7.00;;;3.58;;
25213;SDS011;13160;51.834;4.706;2022-07-29T09:37:48;6.88;;;3.17;;
25213;SDS011;13160;51.834;4.706;2022-07-29T09:40:19;5.90;;;3.30;;
25213;SDS011;13160;51.834;4.706;2022-07-29T09:42:49;7.90;;;3.67;;
25213;SDS011;13160;51.834;4.706;2022-07-29T09:45:26;7.50;;;3.40;;
25213;SDS011;13160;51.834;4.706;2022-07-29T09:47:56;7.60;;;3.22;;
25213;SDS011;13160;51.834;4.706;2022-07-29T09:50:35;6.50;;;3.10;;
25213;SDS011;13160;51.834;4.706;2022-07-29T09:53:06;6.63;;;3.63;;
25213;SDS011;13160;51.834;4.706;2022-07-29T09:58:27;5.18;;;2.88;;
25213;SDS011;13160;51.834;4.706;2022-07-29T10:00:56;6.78;;;2.60;;
25213;SDS011;13160;51.834;4.706;2022-07-29T10:03:24;7.35;;;2.67;;
25213;SDS011;13160;51.834;4.706;2022-07-29T10:06:06;6.88;;;2.88;;
25213;SDS011;13160;51.834;4.706;2022-07-29T10:08:35;8.30;;;3.30;;
25213;SDS011;13160;51.834;4.706;2022-07-29T10:11:12;7.45;;;2.40;;
25213;SDS011;13160;51.834;4.706;2022-07-29T10:13:42;7.80;;;2.50;;
25213;SDS011;13160;51.834;4.706;2022-07-29T10:16:13;7.55;;;2.97;;
25213;SDS011;13160;51.834;4.706;2022-07-29T10:18:43;10.48;;;3.13;;
25213;SDS011;13160;51.834;4.706;2022-07-29T10:21:13;5.90;;;2.90;;
25213;SDS011;13160;51.834;4.706;2022-07-29T10:24:01;5.60;;;2.20;;
25213;SDS011;13160;51.834;4.706;2022-07-29T10:26:41;6.40;;;2.58;;
25213;SDS011;13160;51.834;4.706;2022-07-29T10:29:10;7.75;;;2.40;;
25213;SDS011;13160;51.834;4.706;2022-07-29T10:31:44;5.40;;;2.70;;
25213;SDS011;13160;51.834;4.706;2022-07-29T10:34:23;5.10;;;1.88;;
25213;SDS011;13160;51.834;4.706;2022-07-29T10:37:07;4.85;;;2.15;;
25213;SDS011;13160;51.834;4.706;2022-07-29T10:40:06;6.43;;;2.38;;
25213;SDS011;13160;51.834;4.706;2022-07-29T10:43:21;8.30;;;2.33;;
25213;SDS011;13160;51.834;4.706;2022-07-29T10:45:59;5.72;;;2.20;;
25213;SDS011;13160;51.834;4.706;2022-07-29T10:48:34;8.15;;;2.50;;
25213;SDS011;13160;51.834;4.706;2022-07-29T10:51:06;8.00;;;2.63;;
25213;SDS011;13160;51.834;4.706;2022-07-29T10:56:26;7.72;;;2.38;;
25213;SDS011;13160;51.834;4.706;2022-07-29T11:05:30;5.95;;;2.25;;
25213;SDS011;13160;51.834;4.706;2022-07-29T11:08:25;3.97;;;1.67;;
25213;SDS011;13160;51.834;4.706;2022-07-29T11:14:13;6.43;;;2.42;;
25213;SDS011;13160;51.834;4.706;2022-07-29T11:17:02;8.55;;;2.05;;
25213;SDS011;13160;51.834;4.706;2022-07-29T11:19:34;8.02;;;2.55;;
25213;SDS011;13160;51.834;4.706;2022-07-29T11:22:31;7.05;;;2.47;;
25213;SDS011;13160;51.834;4.706;2022-07-29T11:25:12;8.70;;;2.78;;
25213;SDS011;13160;51.834;4.706;2022-07-29T11:27:42;5.38;;;2.33;;
25213;SDS011;13160;51.834;4.706;2022-07-29T11:30:13;6.90;;;2.00;;
25213;SDS011;13160;51.834;4.706;2022-07-29T11:32:44;5.97;;;1.80;;
25213;SDS011;13160;51.834;4.706;2022-07-29T11:35:16;6.50;;;2.20;;
25213;SDS011;13160;51.834;4.706;2022-07-29T11:38:23;6.30;;;2.05;;
25213;SDS011;13160;51.834;4.706;2022-07-29T11:41:23;6.35;;;2.17;;
25213;SDS011;13160;51.834;4.706;2022-07-29T11:43:53;6.07;;;1.75;;
25213;SDS011;13160;51.834;4.706;2022-07-29T11:49:21;6.00;;;2.03;;
25213;SDS011;13160;51.834;4.706;2022-07-29T11:51:58;8.45;;;1.75;;
25213;SDS011;13160;51.834;4.706;2022-07-29T11:54:31;6.68;;;1.80;;
25213;SDS011;13160;51.834;4.706;2022-07-29T11:57:21;8.88;;;2.33;;
25213;SDS011;13160;51.834;4.706;2022-07-29T12:00:02;9.40;;;1.98;;
25213;SDS011;13160;51.834;4.706;2022-07-29T12:02:38;6.35;;;2.00;;
25213;SDS011;13160;51.834;4.706;2022-07-29T12:05:10;4.85;;;1.80;;
25213;SDS011;13160;51.834;4.706;2022-07-29T12:07:39;5.65;;;2.38;;
25213;SDS011;13160;51.834;4.706;2022-07-29T12:10:12;4.80;;;1.98;;
25213;SDS011;13160;51.834;4.706;2022-07-29T12:12:54;4.63;;;1.77;;
25213;SDS011;13160;51.834;4.706;2022-07-29T12:15:23;6.88;;;2.30;;
25213;SDS011;13160;51.834;4.706;2022-07-29T12:18:12;7.50;;;2.00;;
25213;SDS011;13160;51.834;4.706;2022-07-29T12:20:45;6.95;;;2.25;;
25213;SDS011;13160;51.834;4.706;2022-07-29T12:23:15;5.88;;;2.63;;
25213;SDS011;13160;51.834;4.706;2022-07-29T12:25:44;4.57;;;2.25;;
25213;SDS011;13160;51.834;4.706;2022-07-29T12:28:15;4.40;;;1.92;;
25213;SDS011;13160;51.834;4.706;2022-07-29T12:30:53;4.38;;;1.92;;
25213;SDS011;13160;51.834;4.706;2022-07-29T12:33:22;5.05;;;1.77;;
25213;SDS011;13160;51.834;4.706;2022-07-29T12:35:54;6.78;;;2.00;;
25213;SDS011;13160;51.834;4.706;2022-07-29T12:38:33;7.53;;;2.17;;
25213;SDS011;13160;51.834;4.706;2022-07-29T12:41:02;5.03;;;2.10;;
25213;SDS011;13160;51.834;4.706;2022-07-29T12:43:31;7.13;;;2.50;;
25213;SDS011;13160;51.834;4.706;2022-07-29T12:46:11;5.82;;;2.15;;
25213;SDS011;13160;51.834;4.706;2022-07-29T12:48:49;7.55;;;2.55;;
25213;SDS011;13160;51.834;4.706;2022-07-29T12:51:29;6.30;;;1.90;;
25213;SDS011;13160;51.834;4.706;2022-07-29T12:54:03;4.97;;;2.17;;
25213;SDS011;13160;51.834;4.706;2022-07-29T12:56:37;6.03;;;2.03;;
25213;SDS011;13160;51.834;4.706;2022-07-29T12:59:11;5.32;;;2.13;;
25213;SDS011;13160;51.834;4.706;2022-07-29T13:01:41;4.88;;;2.35;;
25213;SDS011;13160;51.834;4.706;2022-07-29T13:04:10;7.32;;;2.50;;
25213;SDS011;13160;51.834;4.706;2022-07-29T13:06:40;7.47;;;2.75;;
25213;SDS011;13160;51.834;4.706;2022-07-29T13:09:15;5.25;;;2.28;;
25213;SDS011;13160;51.834;4.706;2022-07-29T13:11:45;7.10;;;2.22;;
25213;SDS011;13160;51.834;4.706;2022-07-29T13:14:29;9.02;;;2.53;;
25213;SDS011;13160;51.834;4.706;2022-07-29T13:17:01;7.65;;;2.45;;
25213;SDS011;13160;51.834;4.706;2022-07-29T13:19:33;5.32;;;2.67;;
25213;SDS011;13160;51.834;4.706;2022-07-29T13:22:08;8.90;;;2.10;;
25213;SDS011;13160;51.834;4.706;2022-07-29T13:24:47;9.82;;;2.47;;
25213;SDS011;13160;51.834;4.706;2022-07-29T13:27:18;6.93;;;2.85;;
25213;SDS011;13160;51.834;4.706;2022-07-29T13:29:48;6.18;;;2.60;;
25213;SDS011;13160;51.834;4.706;2022-07-29T13:32:18;6.18;;;2.20;;
25213;SDS011;13160;51.834;4.706;2022-07-29T13:34:54;6.50;;;2.45;;
25213;SDS011;13160;51.834;4.706;2022-07-29T13:37:25;6.78;;;3.10;;
25213;SDS011;13160;51.834;4.706;2022-07-29T13:39:56;7.47;;;3.10;;
25213;SDS011;13160;51.834;4.706;2022-07-29T13:42:26;6.57;;;2.90;;
25213;SDS011;13160;51.834;4.706;2022-07-29T13:44:55;7.50;;;2.08;;
25213;SDS011;13160;51.834;4.706;2022-07-29T13:47:23;5.80;;;2.53;;
25213;SDS011;13160;51.834;4.706;2022-07-29T13:49:58;7.40;;;2.60;;
25213;SDS011;13160;51.834;4.706;2022-07-29T13:52:28;6.90;;;2.33;;
25213;SDS011;13160;51.834;4.706;2022-07-29T13:54:57;6.50;;;2.35;;
25213;SDS011;13160;51.834;4.706;2022-07-29T13:57:25;9.25;;;3.00;;
25213;SDS011;13160;51.834;4.706;2022-07-29T13:59:54;6.03;;;2.20;;
25213;SDS011;13160;51.834;4.706;2022-07-29T14:02:23;8.45;;;2.53;;
25213;SDS011;13160;51.834;4.706;2022-07-29T14:04:52;6.82;;;2.20;;
25213;SDS011;13160;51.834;4.706;2022-07-29T14:07:21;6.00;;;2.60;;
25213;SDS011;13160;51.834;4.706;2022-07-29T14:09:51;5.30;;;2.28;;
25213;SDS011;13160;51.834;4.706;2022-07-29T14:12:19;4.78;;;1.98;;
25213;SDS011;13160;51.834;4.706;2022-07-29T14:14:48;8.65;;;2.63;;
25213;SDS011;13160;51.834;4.706;2022-07-29T14:17:17;5.25;;;2.20;;
25213;SDS011;13160;51.834;4.706;2022-07-29T14:19:45;4.68;;;2.20;;
25213;SDS011;13160;51.834;4.706;2022-07-29T14:22:14;6.43;;;2.35;;
25213;SDS011;13160;51.834;4.706;2022-07-29T14:24:47;6.28;;;2.00;;
25213;SDS011;13160;51.834;4.706;2022-07-29T14:27:18;7.22;;;2.20;;
25213;SDS011;13160;51.834;4.706;2022-07-29T14:30:04;6.50;;;2.38;;
25213;SDS011;13160;51.834;4.706;2022-07-29T14:32:34;12.35;;;2.55;;
25213;SDS011;13160;51.834;4.706;2022-07-29T14:35:03;5.50;;;2.00;;
25213;SDS011;13160;51.834;4.706;2022-07-29T14:37:32;5.22;;;2.25;;
25213;SDS011;13160;51.834;4.706;2022-07-29T14:40:06;5.32;;;1.80;;
25213;SDS011;13160;51.834;4.706;2022-07-29T14:42:38;4.55;;;2.22;;
25213;SDS011;13160;51.834;4.706;2022-07-29T14:45:07;9.05;;;2.40;;
25213;SDS011;13160;51.834;4.706;2022-07-29T14:47:37;7.65;;;2.40;;
25213;SDS011;13160;51.834;4.706;2022-07-29T14:50:07;6.90;;;2.17;;
25213;SDS011;13160;51.834;4.706;2022-07-29T14:52:36;6.55;;;2.33;;
25213;SDS011;13160;51.834;4.706;2022-07-29T14:55:05;6.40;;;2.45;;
25213;SDS011;13160;51.834;4.706;2022-07-29T14:57:46;5.68;;;2.45;;
25213;SDS011;13160;51.834;4.706;2022-07-29T15:00:16;7.50;;;2.35;;
25213;SDS011;13160;51.834;4.706;2022-07-29T15:02:46;9.00;;;2.85;;
25213;SDS011;13160;51.834;4.706;2022-07-29T15:05:28;7.80;;;2.40;;
25213;SDS011;13160;51.834;4.706;2022-07-29T15:07:57;7.00;;;2.47;;
25213;SDS011;13160;51.834;4.706;2022-07-29T15:10:26;5.32;;;2.90;;
25213;SDS011;13160;51.834;4.706;2022-07-29T15:12:56;6.90;;;2.00;;
25213;SDS011;13160;51.834;4.706;2022-07-29T15:15:25;5.60;;;2.72;;
25213;SDS011;13160;51.834;4.706;2022-07-29T15:17:54;6.68;;;2.38;;
25213;SDS011;13160;51.834;4.706;2022-07-29T15:20:22;5.20;;;2.83;;
25213;SDS011;13160;51.834;4.706;2022-07-29T15:22:53;7.32;;;3.00;;
25213;SDS011;13160;51.834;4.706;2022-07-29T15:25:22;5.18;;;2.67;;
25213;SDS011;13160;51.834;4.706;2022-07-29T15:27:53;6.50;;;2.55;;
25213;SDS011;13160;51.834;4.706;2022-07-29T15:30:28;5.82;;;2.70;;
25213;SDS011;13160;51.834;4.706;2022-07-29T15:33:00;6.38;;;2.35;;
25213;SDS011;13160;51.834;4.706;2022-07-29T15:35:30;8.73;;;2.80;;
25213;SDS011;13160;51.834;4.706;2022-07-29T15:38:05;8.18;;;2.78;;
25213;SDS011;13160;51.834;4.706;2022-07-29T15:40:36;8.90;;;2.38;;
25213;SDS011;13160;51.834;4.706;2022-07-29T15:43:05;5.22;;;2.15;;